sensor_id;sensor_type;location;lat;lon;timestamp;P1;durP1;ratioP1;P2;durP2;ratioP2
21564;SDS011;10943;48.738;9.320;2022-09-01T00:00:11;35.10;;;26.50;;
21564;SDS011;10943;48.738;9.320;2022-09-01T00:02:40;34.35;;;25.85;;
21564;SDS011;10943;48.738;9.320;2022-09-01T00:05:09;33.55;;;25.50;;
21564;SDS011;10943;48.738;9.320;2022-09-01T00:07:38;34.00;;;26.75;;
21564;SDS011;10943;48.738;9.320;2022-09-01T00:10:06;37.38;;;25.98;;
21564;SDS011;10943;48.738;9.320;2022-09-01T00:12:35;28.55;;;23.95;;
21564;SDS011;10943;48.738;9.320;2022-09-01T00:15:04;30.00;;;23.73;;
21564;SDS011;10943;48.738;9.320;2022-09-01T00:17:35;29.50;;;23.02;;
21564;SDS011;10943;48.738;9.320;2022-09-01T00:20:03;30.23;;;23.63;;
21564;SDS011;10943;48.738;9.320;2022-09-01T00:22:32;28.85;;;23.42;;
21564;SDS011;10943;48.738;9.320;2022-09-01T00:25:00;25.00;;;22.30;;
21564;SDS011;10943;48.738;9.320;2022-09-01T00:27:27;25.90;;;22.70;;
21564;SDS011;10943;48.738;9.320;2022-09-01T00:29:56;26.45;;;22.63;;
21564;SDS011;10943;48.738;9.320;2022-09-01T00:32:26;36.10;;;25.58;;
21564;SDS011;10943;48.738;9.320;2022-09-01T00:34:54;32.38;;;25.67;;
21564;SDS011;10943;48.738;9.320;2022-09-01T00:37:21;39.80;;;25.48;;
21564;SDS011;10943;48.738;9.320;2022-09-01T00:39:49;30.85;;;24.75;;
21564;SDS011;10943;48.738;9.320;2022-09-01T00:42:16;32.95;;;24.70;;
21564;SDS011;10943;48.738;9.320;2022-09-01T00:44:43;41.22;;;26.75;;
21564;SDS011;10943;48.738;9.320;2022-09-01T00:47:12;39.95;;;25.95;;
21564;SDS011;10943;48.738;9.320;2022-09-01T00:49:41;36.58;;;26.77;;
21564;SDS011;10943;48.738;9.320;2022-09-01T00:55:23;47.03;;;29.42;;
21564;SDS011;10943;48.738;9.320;2022-09-01T00:57:59;30.08;;;25.05;;
21564;SDS011;10943;48.738;9.320;2022-09-01T01:00:31;29.30;;;23.42;;
21564;SDS011;10943;48.738;9.320;2022-09-01T01:03:08;35.53;;;25.23;;
21564;SDS011;10943;48.738;9.320;2022-09-01T01:05:38;41.22;;;27.02;;
21564;SDS011;10943;48.738;9.320;2022-09-01T01:08:23;28.30;;;24.15;;
21564;SDS011;10943;48.738;9.320;2022-09-01T01:11:03;40.30;;;27.50;;
21564;SDS011;10943;48.738;9.320;2022-09-01T01:13:54;30.15;;;24.13;;
21564;SDS011;10943;48.738;9.320;2022-09-01T01:16:41;31.55;;;25.08;;
21564;SDS011;10943;48.738;9.320;2022-09-01T01:31:09;31.60;;;23.80;;
21564;SDS011;10943;48.738;9.320;2022-09-01T01:33:47;27.65;;;23.55;;
21564;SDS011;10943;48.738;9.320;2022-09-01T01:36:24;30.08;;;23.98;;
21564;SDS011;10943;48.738;9.320;2022-09-01T01:39:08;36.45;;;23.02;;
21564;SDS011;10943;48.738;9.320;2022-09-01T01:41:46;36.72;;;24.15;;
21564;SDS011;10943;48.738;9.320;2022-09-01T01:44:19;27.45;;;23.48;;
21564;SDS011;10943;48.738;9.320;2022-09-01T01:46:55;37.72;;;26.42;;
21564;SDS011;10943;48.738;9.320;2022-09-01T01:49:25;38.53;;;25.83;;
21564;SDS011;10943;48.738;9.320;2022-09-01T01:51:56;32.53;;;24.17;;
21564;SDS011;10943;48.738;9.320;2022-09-01T01:54:28;36.00;;;26.92;;
21564;SDS011;10943;48.738;9.320;2022-09-01T01:56:58;36.38;;;28.23;;
21564;SDS011;10943;48.738;9.320;2022-09-01T01:59:29;37.13;;;26.10;;
21564;SDS011;10943;48.738;9.320;2022-09-01T02:01:59;35.22;;;25.00;;
21564;SDS011;10943;48.738;9.320;2022-09-01T02:04:29;40.42;;;27.38;;
21564;SDS011;10943;48.738;9.320;2022-09-01T02:07:04;42.47;;;29.38;;
21564;SDS011;10943;48.738;9.320;2022-09-01T02:09:37;44.53;;;30.02;;
21564;SDS011;10943;48.738;9.320;2022-09-01T02:12:09;45.67;;;29.58;;
21564;SDS011;10943;48.738;9.320;2022-09-01T02:14:41;32.60;;;26.20;;
21564;SDS011;10943;48.738;9.320;2022-09-01T02:17:09;39.65;;;27.92;;
21564;SDS011;10943;48.738;9.320;2022-09-01T02:19:37;35.33;;;26.15;;
21564;SDS011;10943;48.738;9.320;2022-09-01T02:22:08;37.80;;;25.27;;
21564;SDS011;10943;48.738;9.320;2022-09-01T02:24:37;39.45;;;26.33;;
21564;SDS011;10943;48.738;9.320;2022-09-01T02:27:10;34.50;;;26.15;;
21564;SDS011;10943;48.738;9.320;2022-09-01T02:29:38;50.88;;;28.98;;
21564;SDS011;10943;48.738;9.320;2022-09-01T02:32:09;38.15;;;26.58;;
21564;SDS011;10943;48.738;9.320;2022-09-01T02:34:37;34.53;;;24.90;;
21564;SDS011;10943;48.738;9.320;2022-09-01T02:37:05;34.22;;;26.75;;
21564;SDS011;10943;48.738;9.320;2022-09-01T02:39:32;39.65;;;27.65;;
21564;SDS011;10943;48.738;9.320;2022-09-01T02:42:00;37.38;;;26.88;;
21564;SDS011;10943;48.738;9.320;2022-09-01T02:44:28;32.90;;;25.10;;
21564;SDS011;10943;48.738;9.320;2022-09-01T02:46:58;36.45;;;25.70;;
21564;SDS011;10943;48.738;9.320;2022-09-01T02:52:25;26.38;;;22.27;;
21564;SDS011;10943;48.738;9.320;2022-09-01T02:54:55;27.90;;;22.90;;
21564;SDS011;10943;48.738;9.320;2022-09-01T02:57:22;29.38;;;23.95;;
21564;SDS011;10943;48.738;9.320;2022-09-01T02:59:50;28.63;;;24.17;;
21564;SDS011;10943;48.738;9.320;2022-09-01T03:02:17;31.13;;;23.92;;
21564;SDS011;10943;48.738;9.320;2022-09-01T03:04:44;28.05;;;23.17;;
21564;SDS011;10943;48.738;9.320;2022-09-01T03:07:13;32.42;;;24.40;;
21564;SDS011;10943;48.738;9.320;2022-09-01T03:09:43;44.97;;;27.48;;
21564;SDS011;10943;48.738;9.320;2022-09-01T03:12:11;40.38;;;29.02;;
21564;SDS011;10943;48.738;9.320;2022-09-01T03:14:38;41.35;;;28.85;;
21564;SDS011;10943;48.738;9.320;2022-09-01T03:17:06;47.00;;;30.10;;
21564;SDS011;10943;48.738;9.320;2022-09-01T03:19:33;54.95;;;30.10;;
21564;SDS011;10943;48.738;9.320;2022-09-01T03:22:06;43.83;;;28.15;;
21564;SDS011;10943;48.738;9.320;2022-09-01T03:24:33;41.83;;;28.48;;
21564;SDS011;10943;48.738;9.320;2022-09-01T03:27:01;34.88;;;26.33;;
21564;SDS011;10943;48.738;9.320;2022-09-01T03:29:31;40.10;;;29.13;;
21564;SDS011;10943;48.738;9.320;2022-09-01T03:32:00;36.90;;;28.08;;
21564;SDS011;10943;48.738;9.320;2022-09-01T03:34:28;45.08;;;30.35;;
21564;SDS011;10943;48.738;9.320;2022-09-01T03:37:00;48.28;;;30.38;;
21564;SDS011;10943;48.738;9.320;2022-09-01T03:39:28;39.00;;;28.83;;
21564;SDS011;10943;48.738;9.320;2022-09-01T03:41:56;38.03;;;28.80;;
21564;SDS011;10943;48.738;9.320;2022-09-01T03:44:25;49.33;;;30.75;;
21564;SDS011;10943;48.738;9.320;2022-09-01T03:46:52;38.72;;;28.08;;
21564;SDS011;10943;48.738;9.320;2022-09-01T03:49:20;42.80;;;28.38;;
21564;SDS011;10943;48.738;9.320;2022-09-01T03:51:54;47.47;;;28.45;;
21564;SDS011;10943;48.738;9.320;2022-09-01T03:54:24;50.28;;;30.10;;
21564;SDS011;10943;48.738;9.320;2022-09-01T03:56:56;36.55;;;27.05;;
21564;SDS011;10943;48.738;9.320;2022-09-01T03:59:25;45.22;;;29.27;;
21564;SDS011;10943;48.738;9.320;2022-09-01T04:01:55;42.70;;;28.25;;
21564;SDS011;10943;48.738;9.320;2022-09-01T04:04:26;43.35;;;29.30;;
21564;SDS011;10943;48.738;9.320;2022-09-01T04:06:57;38.20;;;28.33;;
21564;SDS011;10943;48.738;9.320;2022-09-01T04:09:31;36.53;;;27.58;;
21564;SDS011;10943;48.738;9.320;2022-09-01T04:12:02;37.47;;;28.30;;
21564;SDS011;10943;48.738;9.320;2022-09-01T04:14:35;35.67;;;27.80;;
21564;SDS011;10943;48.738;9.320;2022-09-01T04:17:03;31.40;;;25.80;;
21564;SDS011;10943;48.738;9.320;2022-09-01T04:19:55;40.35;;;25.75;;
21564;SDS011;10943;48.738;9.320;2022-09-01T04:22:23;32.72;;;22.52;;
21564;SDS011;10943;48.738;9.320;2022-09-01T04:24:54;37.88;;;25.00;;
21564;SDS011;10943;48.738;9.320;2022-09-01T04:27:21;34.67;;;26.70;;
21564;SDS011;10943;48.738;9.320;2022-09-01T04:29:52;32.15;;;25.13;;
21564;SDS011;10943;48.738;9.320;2022-09-01T04:32:25;41.83;;;28.77;;
21564;SDS011;10943;48.738;9.320;2022-09-01T04:34:56;51.53;;;31.95;;
21564;SDS011;10943;48.738;9.320;2022-09-01T04:37:24;38.30;;;27.63;;
21564;SDS011;10943;48.738;9.320;2022-09-01T04:39:54;36.08;;;26.83;;
21564;SDS011;10943;48.738;9.320;2022-09-01T04:42:25;38.03;;;27.88;;
21564;SDS011;10943;48.738;9.320;2022-09-01T04:44:59;36.70;;;27.45;;
21564;SDS011;10943;48.738;9.320;2022-09-01T04:47:42;31.50;;;26.65;;
21564;SDS011;10943;48.738;9.320;2022-09-01T04:50:14;35.72;;;27.55;;
21564;SDS011;10943;48.738;9.320;2022-09-01T04:53:03;41.05;;;28.52;;
21564;SDS011;10943;48.738;9.320;2022-09-01T04:55:46;43.90;;;29.48;;
21564;SDS011;10943;48.738;9.320;2022-09-01T04:58:17;36.30;;;28.30;;
21564;SDS011;10943;48.738;9.320;2022-09-01T05:00:46;38.67;;;28.17;;
21564;SDS011;10943;48.738;9.320;2022-09-01T05:03:19;35.80;;;26.80;;
21564;SDS011;10943;48.738;9.320;2022-09-01T05:05:55;36.13;;;27.48;;
21564;SDS011;10943;48.738;9.320;2022-09-01T05:08:26;32.33;;;27.27;;
21564;SDS011;10943;48.738;9.320;2022-09-01T05:11:02;39.15;;;28.65;;
21564;SDS011;10943;48.738;9.320;2022-09-01T05:13:45;31.83;;;26.33;;
21564;SDS011;10943;48.738;9.320;2022-09-01T05:16:16;35.92;;;26.10;;
21564;SDS011;10943;48.738;9.320;2022-09-01T05:18:53;41.05;;;30.83;;
21564;SDS011;10943;48.738;9.320;2022-09-01T05:21:27;36.15;;;27.90;;
21564;SDS011;10943;48.738;9.320;2022-09-01T05:23:59;39.70;;;27.88;;
21564;SDS011;10943;48.738;9.320;2022-09-01T05:26:27;34.17;;;27.42;;
21564;SDS011;10943;48.738;9.320;2022-09-01T05:29:01;46.30;;;33.38;;
21564;SDS011;10943;48.738;9.320;2022-09-01T05:31:36;41.10;;;30.23;;
21564;SDS011;10943;48.738;9.320;2022-09-01T05:34:04;40.13;;;32.05;;
21564;SDS011;10943;48.738;9.320;2022-09-01T05:36:36;39.15;;;31.55;;
21564;SDS011;10943;48.738;9.320;2022-09-01T05:39:09;37.67;;;29.00;;
21564;SDS011;10943;48.738;9.320;2022-09-01T05:41:38;38.92;;;30.42;;
21564;SDS011;10943;48.738;9.320;2022-09-01T05:44:07;39.00;;;30.92;;
21564;SDS011;10943;48.738;9.320;2022-09-01T05:46:37;44.80;;;32.67;;
21564;SDS011;10943;48.738;9.320;2022-09-01T05:49:06;39.95;;;31.95;;
21564;SDS011;10943;48.738;9.320;2022-09-01T05:51:40;38.35;;;32.53;;
21564;SDS011;10943;48.738;9.320;2022-09-01T05:54:21;38.55;;;34.38;;
21564;SDS011;10943;48.738;9.320;2022-09-01T05:56:54;35.15;;;28.00;;
21564;SDS011;10943;48.738;9.320;2022-09-01T05:59:47;37.60;;;32.22;;
21564;SDS011;10943;48.738;9.320;2022-09-01T06:02:21;34.78;;;30.27;;
21564;SDS011;10943;48.738;9.320;2022-09-01T06:04:53;34.97;;;30.40;;
21564;SDS011;10943;48.738;9.320;2022-09-01T06:07:27;35.83;;;31.13;;
21564;SDS011;10943;48.738;9.320;2022-09-01T06:09:57;34.97;;;29.95;;
21564;SDS011;10943;48.738;9.320;2022-09-01T06:12:26;28.60;;;25.52;;
21564;SDS011;10943;48.738;9.320;2022-09-01T06:14:54;37.13;;;28.30;;
21564;SDS011;10943;48.738;9.320;2022-09-01T06:17:25;32.28;;;28.25;;
21564;SDS011;10943;48.738;9.320;2022-09-01T06:20:02;29.40;;;26.10;;
21564;SDS011;10943;48.738;9.320;2022-09-01T06:22:38;27.30;;;24.38;;
21564;SDS011;10943;48.738;9.320;2022-09-01T06:25:07;31.33;;;26.70;;
21564;SDS011;10943;48.738;9.320;2022-09-01T06:27:38;30.83;;;25.77;;
21564;SDS011;10943;48.738;9.320;2022-09-01T06:30:08;23.90;;;21.30;;
21564;SDS011;10943;48.738;9.320;2022-09-01T06:32:58;21.75;;;18.75;;
21564;SDS011;10943;48.738;9.320;2022-09-01T06:35:27;25.77;;;21.58;;
21564;SDS011;10943;48.738;9.320;2022-09-01T06:37:57;22.65;;;18.52;;
21564;SDS011;10943;48.738;9.320;2022-09-01T06:40:35;25.17;;;20.35;;
21564;SDS011;10943;48.738;9.320;2022-09-01T06:43:07;20.85;;;18.65;;
21564;SDS011;10943;48.738;9.320;2022-09-01T06:45:41;23.10;;;17.70;;
21564;SDS011;10943;48.738;9.320;2022-09-01T06:48:22;19.77;;;17.02;;
21564;SDS011;10943;48.738;9.320;2022-09-01T06:50:53;21.25;;;17.00;;
21564;SDS011;10943;48.738;9.320;2022-09-01T06:53:41;17.92;;;16.02;;
21564;SDS011;10943;48.738;9.320;2022-09-01T06:56:16;15.40;;;13.35;;
21564;SDS011;10943;48.738;9.320;2022-09-01T06:58:44;15.95;;;9.98;;
21564;SDS011;10943;48.738;9.320;2022-09-01T07:01:15;15.07;;;10.90;;
21564;SDS011;10943;48.738;9.320;2022-09-01T07:03:48;14.82;;;9.40;;
21564;SDS011;10943;48.738;9.320;2022-09-01T07:06:29;10.25;;;8.40;;
21564;SDS011;10943;48.738;9.320;2022-09-01T07:09:35;13.48;;;7.13;;
21564;SDS011;10943;48.738;9.320;2022-09-01T07:12:33;10.77;;;7.47;;
21564;SDS011;10943;48.738;9.320;2022-09-01T07:15:02;10.25;;;7.40;;
21564;SDS011;10943;48.738;9.320;2022-09-01T07:17:51;12.27;;;8.75;;
21564;SDS011;10943;48.738;9.320;2022-09-01T07:20:23;11.18;;;6.82;;
21564;SDS011;10943;48.738;9.320;2022-09-01T07:22:56;9.65;;;7.72;;
21564;SDS011;10943;48.738;9.320;2022-09-01T07:25:40;10.95;;;8.35;;
21564;SDS011;10943;48.738;9.320;2022-09-01T07:28:33;9.70;;;5.97;;
21564;SDS011;10943;48.738;9.320;2022-09-01T07:31:03;11.75;;;9.05;;
21564;SDS011;10943;48.738;9.320;2022-09-01T07:33:55;11.77;;;8.55;;
21564;SDS011;10943;48.738;9.320;2022-09-01T07:36:47;10.93;;;7.72;;
21564;SDS011;10943;48.738;9.320;2022-09-01T07:39:37;9.60;;;7.10;;
21564;SDS011;10943;48.738;9.320;2022-09-01T07:42:55;9.77;;;7.70;;
21564;SDS011;10943;48.738;9.320;2022-09-01T07:45:47;8.02;;;7.22;;
21564;SDS011;10943;48.738;9.320;2022-09-01T07:48:25;8.27;;;6.50;;
21564;SDS011;10943;48.738;9.320;2022-09-01T07:51:15;8.55;;;6.95;;
21564;SDS011;10943;48.738;9.320;2022-09-01T07:54:06;6.75;;;5.88;;
21564;SDS011;10943;48.738;9.320;2022-09-01T07:56:33;7.20;;;6.40;;
21564;SDS011;10943;48.738;9.320;2022-09-01T07:59:08;8.15;;;6.47;;
21564;SDS011;10943;48.738;9.320;2022-09-01T08:02:01;8.50;;;6.93;;
21564;SDS011;10943;48.738;9.320;2022-09-01T08:04:31;7.90;;;6.72;;
21564;SDS011;10943;48.738;9.320;2022-09-01T08:07:01;7.70;;;6.88;;
21564;SDS011;10943;48.738;9.320;2022-09-01T08:09:30;10.25;;;7.32;;
21564;SDS011;10943;48.738;9.320;2022-09-01T08:12:04;8.60;;;7.68;;
21564;SDS011;10943;48.738;9.320;2022-09-01T08:14:43;9.80;;;7.28;;
21564;SDS011;10943;48.738;9.320;2022-09-01T08:17:11;8.15;;;7.15;;
21564;SDS011;10943;48.738;9.320;2022-09-01T08:20:03;7.43;;;6.50;;
21564;SDS011;10943;48.738;9.320;2022-09-01T08:22:50;9.90;;;7.40;;
21564;SDS011;10943;48.738;9.320;2022-09-01T08:25:35;7.90;;;6.88;;
21564;SDS011;10943;48.738;9.320;2022-09-01T08:31:46;7.90;;;5.70;;
21564;SDS011;10943;48.738;9.320;2022-09-01T08:41:46;7.70;;;4.70;;
21564;SDS011;10943;48.738;9.320;2022-09-01T09:47:33;5.35;;;2.58;;
21564;SDS011;10943;48.738;9.320;2022-09-01T09:53:12;4.35;;;2.80;;
21564;SDS011;10943;48.738;9.320;2022-09-01T09:56:02;6.65;;;2.70;;
21564;SDS011;10943;48.738;9.320;2022-09-01T09:58:41;5.18;;;2.85;;
21564;SDS011;10943;48.738;9.320;2022-09-01T10:03:51;5.28;;;3.03;;
21564;SDS011;10943;48.738;9.320;2022-09-01T10:06:28;4.43;;;3.00;;
21564;SDS011;10943;48.738;9.320;2022-09-01T10:09:32;5.93;;;2.90;;
21564;SDS011;10943;48.738;9.320;2022-09-01T10:12:03;3.90;;;2.58;;
21564;SDS011;10943;48.738;9.320;2022-09-01T10:14:34;4.88;;;2.90;;
21564;SDS011;10943;48.738;9.320;2022-09-01T10:17:21;5.78;;;3.40;;
21564;SDS011;10943;48.738;9.320;2022-09-01T10:20:11;5.07;;;3.03;;
21564;SDS011;10943;48.738;9.320;2022-09-01T10:22:48;4.35;;;2.63;;
21564;SDS011;10943;48.738;9.320;2022-09-01T10:25:19;4.22;;;2.75;;
21564;SDS011;10943;48.738;9.320;2022-09-01T10:28:00;4.78;;;2.42;;
21564;SDS011;10943;48.738;9.320;2022-09-01T10:30:46;5.78;;;2.45;;
21564;SDS011;10943;48.738;9.320;2022-09-01T10:33:14;4.20;;;2.40;;
21564;SDS011;10943;48.738;9.320;2022-09-01T10:35:48;4.38;;;2.40;;
21564;SDS011;10943;48.738;9.320;2022-09-01T10:38:20;4.10;;;2.47;;
21564;SDS011;10943;48.738;9.320;2022-09-01T10:40:54;3.95;;;2.40;;
21564;SDS011;10943;48.738;9.320;2022-09-01T10:43:36;4.03;;;2.60;;
21564;SDS011;10943;48.738;9.320;2022-09-01T10:48:52;4.43;;;2.60;;
21564;SDS011;10943;48.738;9.320;2022-09-01T10:54:46;5.10;;;2.20;;
21564;SDS011;10943;48.738;9.320;2022-09-01T11:00:41;4.10;;;2.40;;
21564;SDS011;10943;48.738;9.320;2022-09-01T11:09:42;4.45;;;2.67;;
21564;SDS011;10943;48.738;9.320;2022-09-01T12:12:07;3.90;;;2.78;;
21564;SDS011;10943;48.738;9.320;2022-09-01T12:15:07;5.65;;;2.90;;
21564;SDS011;10943;48.738;9.320;2022-09-01T12:17:48;3.80;;;2.67;;
21564;SDS011;10943;48.738;9.320;2022-09-01T12:20:20;5.18;;;2.60;;
21564;SDS011;10943;48.738;9.320;2022-09-01T12:23:00;4.30;;;2.45;;
21564;SDS011;10943;48.738;9.320;2022-09-01T12:25:29;4.05;;;2.40;;
21564;SDS011;10943;48.738;9.320;2022-09-01T12:28:00;3.88;;;2.42;;
21564;SDS011;10943;48.738;9.320;2022-09-01T12:30:32;5.53;;;2.55;;
21564;SDS011;10943;48.738;9.320;2022-09-01T12:33:05;3.78;;;2.65;;
21564;SDS011;10943;48.738;9.320;2022-09-01T12:42:03;5.90;;;2.65;;
21564;SDS011;10943;48.738;9.320;2022-09-01T12:44:44;4.40;;;2.75;;
21564;SDS011;10943;48.738;9.320;2022-09-01T12:52:50;4.32;;;2.80;;
21564;SDS011;10943;48.738;9.320;2022-09-01T12:55:26;5.22;;;2.40;;
21564;SDS011;10943;48.738;9.320;2022-09-01T12:58:19;3.60;;;2.25;;
21564;SDS011;10943;48.738;9.320;2022-09-01T13:01:22;4.13;;;2.15;;
21564;SDS011;10943;48.738;9.320;2022-09-01T13:04:12;4.53;;;2.35;;
21564;SDS011;10943;48.738;9.320;2022-09-01T13:06:52;4.40;;;2.30;;
21564;SDS011;10943;48.738;9.320;2022-09-01T13:09:26;6.18;;;2.50;;
21564;SDS011;10943;48.738;9.320;2022-09-01T13:12:07;4.28;;;2.45;;
21564;SDS011;10943;48.738;9.320;2022-09-01T13:14:45;6.22;;;2.30;;
21564;SDS011;10943;48.738;9.320;2022-09-01T13:17:13;4.80;;;2.00;;
21564;SDS011;10943;48.738;9.320;2022-09-01T13:19:41;4.70;;;2.50;;
21564;SDS011;10943;48.738;9.320;2022-09-01T13:22:09;3.85;;;2.30;;
21564;SDS011;10943;48.738;9.320;2022-09-01T13:24:37;4.47;;;2.40;;
21564;SDS011;10943;48.738;9.320;2022-09-01T13:27:05;4.05;;;2.60;;
21564;SDS011;10943;48.738;9.320;2022-09-01T13:29:49;4.45;;;2.55;;
21564;SDS011;10943;48.738;9.320;2022-09-01T13:32:19;4.40;;;2.70;;
21564;SDS011;10943;48.738;9.320;2022-09-01T13:34:50;6.05;;;2.45;;
21564;SDS011;10943;48.738;9.320;2022-09-01T13:37:19;5.03;;;2.88;;
21564;SDS011;10943;48.738;9.320;2022-09-01T13:39:48;5.10;;;2.70;;
21564;SDS011;10943;48.738;9.320;2022-09-01T13:42:16;4.10;;;2.80;;
21564;SDS011;10943;48.738;9.320;2022-09-01T13:44:45;4.07;;;2.40;;
21564;SDS011;10943;48.738;9.320;2022-09-01T13:47:17;3.65;;;2.30;;
21564;SDS011;10943;48.738;9.320;2022-09-01T13:50:05;5.75;;;2.40;;
21564;SDS011;10943;48.738;9.320;2022-09-01T13:52:38;4.38;;;2.83;;
21564;SDS011;10943;48.738;9.320;2022-09-01T13:55:22;6.55;;;2.90;;
21564;SDS011;10943;48.738;9.320;2022-09-01T13:57:54;4.68;;;2.80;;
21564;SDS011;10943;48.738;9.320;2022-09-01T14:00:27;4.03;;;2.65;;
21564;SDS011;10943;48.738;9.320;2022-09-01T14:03:03;4.88;;;2.70;;
21564;SDS011;10943;48.738;9.320;2022-09-01T14:05:39;3.67;;;2.08;;
21564;SDS011;10943;48.738;9.320;2022-09-01T14:08:14;5.93;;;2.55;;
21564;SDS011;10943;48.738;9.320;2022-09-01T14:10:48;4.25;;;2.83;;
21564;SDS011;10943;48.738;9.320;2022-09-01T14:13:19;4.28;;;2.40;;
21564;SDS011;10943;48.738;9.320;2022-09-01T14:15:50;4.07;;;2.40;;
21564;SDS011;10943;48.738;9.320;2022-09-01T14:18:19;4.25;;;2.08;;
21564;SDS011;10943;48.738;9.320;2022-09-01T14:20:49;4.35;;;2.50;;
21564;SDS011;10943;48.738;9.320;2022-09-01T14:23:18;6.50;;;2.10;;
21564;SDS011;10943;48.738;9.320;2022-09-01T14:25:47;5.05;;;2.20;;
21564;SDS011;10943;48.738;9.320;2022-09-01T14:28:17;3.88;;;2.22;;
21564;SDS011;10943;48.738;9.320;2022-09-01T14:30:48;3.33;;;2.00;;
21564;SDS011;10943;48.738;9.320;2022-09-01T14:33:17;5.50;;;1.90;;
21564;SDS011;10943;48.738;9.320;2022-09-01T14:35:49;4.43;;;2.20;;
21564;SDS011;10943;48.738;9.320;2022-09-01T14:38:17;4.45;;;2.00;;
21564;SDS011;10943;48.738;9.320;2022-09-01T14:40:46;4.63;;;2.13;;
21564;SDS011;10943;48.738;9.320;2022-09-01T14:43:14;5.63;;;2.10;;
21564;SDS011;10943;48.738;9.320;2022-09-01T14:45:43;4.00;;;2.08;;
21564;SDS011;10943;48.738;9.320;2022-09-01T14:48:14;3.67;;;1.90;;
21564;SDS011;10943;48.738;9.320;2022-09-01T14:50:46;3.05;;;1.88;;
21564;SDS011;10943;48.738;9.320;2022-09-01T14:53:16;3.97;;;1.88;;
21564;SDS011;10943;48.738;9.320;2022-09-01T14:55:45;3.97;;;1.90;;
21564;SDS011;10943;48.738;9.320;2022-09-01T14:58:12;5.65;;;2.10;;
21564;SDS011;10943;48.738;9.320;2022-09-01T15:00:40;4.18;;;2.00;;
21564;SDS011;10943;48.738;9.320;2022-09-01T15:03:08;3.40;;;2.00;;
21564;SDS011;10943;48.738;9.320;2022-09-01T15:05:36;4.85;;;2.10;;
21564;SDS011;10943;48.738;9.320;2022-09-01T15:08:06;4.35;;;2.30;;
21564;SDS011;10943;48.738;9.320;2022-09-01T15:10:41;3.58;;;2.15;;
21564;SDS011;10943;48.738;9.320;2022-09-01T15:13:09;4.30;;;2.10;;
21564;SDS011;10943;48.738;9.320;2022-09-01T15:15:37;4.40;;;2.22;;
21564;SDS011;10943;48.738;9.320;2022-09-01T15:18:05;5.28;;;2.03;;
21564;SDS011;10943;48.738;9.320;2022-09-01T15:20:35;6.00;;;2.00;;
21564;SDS011;10943;48.738;9.320;2022-09-01T15:23:12;4.78;;;2.13;;
21564;SDS011;10943;48.738;9.320;2022-09-01T15:25:46;3.42;;;2.03;;
21564;SDS011;10943;48.738;9.320;2022-09-01T15:28:18;4.53;;;2.05;;
21564;SDS011;10943;48.738;9.320;2022-09-01T15:30:46;3.22;;;1.92;;
21564;SDS011;10943;48.738;9.320;2022-09-01T15:33:14;5.95;;;2.10;;
21564;SDS011;10943;48.738;9.320;2022-09-01T15:35:43;3.97;;;2.30;;
21564;SDS011;10943;48.738;9.320;2022-09-01T15:38:13;3.50;;;2.17;;
21564;SDS011;10943;48.738;9.320;2022-09-01T15:40:44;3.83;;;2.30;;
21564;SDS011;10943;48.738;9.320;2022-09-01T15:43:23;3.95;;;2.33;;
21564;SDS011;10943;48.738;9.320;2022-09-01T15:45:53;6.28;;;3.20;;
21564;SDS011;10943;48.738;9.320;2022-09-01T15:48:25;3.63;;;2.17;;
21564;SDS011;10943;48.738;9.320;2022-09-01T15:51:00;4.38;;;2.10;;
21564;SDS011;10943;48.738;9.320;2022-09-01T15:53:59;5.65;;;2.33;;
21564;SDS011;10943;48.738;9.320;2022-09-01T15:56:33;4.38;;;2.78;;
21564;SDS011;10943;48.738;9.320;2022-09-01T15:59:01;3.67;;;2.22;;
21564;SDS011;10943;48.738;9.320;2022-09-01T16:01:33;3.65;;;2.05;;
21564;SDS011;10943;48.738;9.320;2022-09-01T16:04:05;4.22;;;2.17;;
21564;SDS011;10943;48.738;9.320;2022-09-01T16:06:44;4.32;;;2.58;;
21564;SDS011;10943;48.738;9.320;2022-09-01T16:09:11;4.13;;;2.55;;
21564;SDS011;10943;48.738;9.320;2022-09-01T16:11:39;4.13;;;2.30;;
21564;SDS011;10943;48.738;9.320;2022-09-01T16:14:08;5.97;;;2.30;;
21564;SDS011;10943;48.738;9.320;2022-09-01T16:16:44;4.22;;;2.50;;
21564;SDS011;10943;48.738;9.320;2022-09-01T16:22:49;4.22;;;2.20;;
21564;SDS011;10943;48.738;9.320;2022-09-01T16:25:31;3.85;;;2.45;;
21564;SDS011;10943;48.738;9.320;2022-09-01T16:28:03;5.45;;;2.47;;
21564;SDS011;10943;48.738;9.320;2022-09-01T16:30:49;3.97;;;2.50;;
21564;SDS011;10943;48.738;9.320;2022-09-01T16:33:25;5.13;;;2.45;;
21564;SDS011;10943;48.738;9.320;2022-09-01T16:41:37;7.25;;;5.07;;
21564;SDS011;10943;48.738;9.320;2022-09-01T16:47:32;5.35;;;3.50;;
21564;SDS011;10943;48.738;9.320;2022-09-01T16:50:28;5.95;;;4.10;;
21564;SDS011;10943;48.738;9.320;2022-09-01T16:56:11;6.75;;;4.10;;
21564;SDS011;10943;48.738;9.320;2022-09-01T17:01:55;10.23;;;6.38;;
21564;SDS011;10943;48.738;9.320;2022-09-01T17:04:37;8.07;;;4.68;;
21564;SDS011;10943;48.738;9.320;2022-09-01T17:07:46;4.70;;;2.75;;
21564;SDS011;10943;48.738;9.320;2022-09-01T17:10:30;4.80;;;2.60;;
21564;SDS011;10943;48.738;9.320;2022-09-01T17:13:14;4.10;;;2.42;;
21564;SDS011;10943;48.738;9.320;2022-09-01T17:16:03;4.03;;;2.05;;
21564;SDS011;10943;48.738;9.320;2022-09-01T17:18:52;4.03;;;1.90;;
21564;SDS011;10943;48.738;9.320;2022-09-01T17:21:48;3.97;;;2.00;;
21564;SDS011;10943;48.738;9.320;2022-09-01T17:24:43;5.18;;;2.15;;
21564;SDS011;10943;48.738;9.320;2022-09-01T17:30:29;4.50;;;2.15;;
21564;SDS011;10943;48.738;9.320;2022-09-01T17:33:13;4.03;;;1.70;;
21564;SDS011;10943;48.738;9.320;2022-09-01T17:36:02;3.78;;;2.00;;
21564;SDS011;10943;48.738;9.320;2022-09-01T17:38:47;3.88;;;2.17;;
21564;SDS011;10943;48.738;9.320;2022-09-01T17:42:02;4.00;;;2.08;;
21564;SDS011;10943;48.738;9.320;2022-09-01T17:47:55;4.40;;;2.50;;
21564;SDS011;10943;48.738;9.320;2022-09-01T17:58:52;4.28;;;2.20;;
21564;SDS011;10943;48.738;9.320;2022-09-01T18:01:34;3.53;;;2.05;;
21564;SDS011;10943;48.738;9.320;2022-09-01T18:04:33;4.28;;;2.30;;
21564;SDS011;10943;48.738;9.320;2022-09-01T18:07:36;4.22;;;2.20;;
21564;SDS011;10943;48.738;9.320;2022-09-01T18:10:20;4.93;;;2.13;;
21564;SDS011;10943;48.738;9.320;2022-09-01T18:13:09;4.10;;;2.20;;
21564;SDS011;10943;48.738;9.320;2022-09-01T18:16:15;4.07;;;2.17;;
21564;SDS011;10943;48.738;9.320;2022-09-01T18:18:51;4.85;;;2.40;;
21564;SDS011;10943;48.738;9.320;2022-09-01T18:21:24;6.03;;;2.20;;
21564;SDS011;10943;48.738;9.320;2022-09-01T18:24:10;5.25;;;2.30;;
21564;SDS011;10943;48.738;9.320;2022-09-01T18:26:47;5.10;;;2.60;;
21564;SDS011;10943;48.738;9.320;2022-09-01T18:29:17;4.07;;;2.42;;
21564;SDS011;10943;48.738;9.320;2022-09-01T18:34:33;7.93;;;3.85;;
21564;SDS011;10943;48.738;9.320;2022-09-01T18:41:10;6.93;;;3.60;;
21564;SDS011;10943;48.738;9.320;2022-09-01T18:47:31;7.75;;;4.85;;
21564;SDS011;10943;48.738;9.320;2022-09-01T18:50:12;4.82;;;3.33;;
21564;SDS011;10943;48.738;9.320;2022-09-01T18:58:21;7.93;;;3.78;;
21564;SDS011;10943;48.738;9.320;2022-09-01T19:01:05;4.63;;;3.05;;
21564;SDS011;10943;48.738;9.320;2022-09-01T19:03:56;4.18;;;2.80;;
21564;SDS011;10943;48.738;9.320;2022-09-01T19:22:50;8.88;;;5.22;;
21564;SDS011;10943;48.738;9.320;2022-09-01T19:25:32;5.93;;;4.07;;
21564;SDS011;10943;48.738;9.320;2022-09-01T19:30:45;10.25;;;6.38;;
21564;SDS011;10943;48.738;9.320;2022-09-01T19:33:33;8.73;;;4.90;;
21564;SDS011;10943;48.738;9.320;2022-09-01T19:36:13;8.35;;;4.50;;